Time;durP1;ratioP1;P1;durP2;ratioP2;P2;SDS_P1;SDS_P2;PMS_P1;PMS_P2;Temp;Humidity;BMP_temperature;BMP_pressure;BME280_temperature;BME280_humidity;BME280_pressure;Samples;Min_cycle;Max_cycle;Signal;HPM_P1;HPM_P2
2021/12/21 00:01:55;;;;;;;4.47;1.47;;;;;;;-4.16;100.00;98790.27;1722988;82;21086;-67
2021/12/21 00:04:22;;;;;;;2.77;1.42;;;;;;;-4.18;100.00;98796.31;1732524;82;21040;-66
2021/12/21 00:06:48;;;;;;;4.83;1.05;;;;;;;-4.18;100.00;98805.08;1730017;81;21049;-66
2021/12/21 00:09:14;;;;;;;1.62;0.70;;;;;;;-4.24;100.00;98807.21;1715094;82;21031;-66
2021/12/21 00:11:41;;;;;;;4.92;1.00;;;;;;;-4.25;100.00;98810.09;1713483;82;21111;-66
2021/12/21 00:14:28;;;;;;;2.52;0.90;;;;;;;-4.29;100.00;98815.48;1730668;82;21546;-67
2021/12/21 00:22:10;;;;;;;3.12;1.07;;;;;;;-4.39;100.00;98823.02;1729519;82;21064;-66
2021/12/21 00:24:44;;;;;;;3.17;0.70;;;;;;;-4.44;100.00;98823.59;1698040;84;21561;-66
2021/12/21 00:27:07;;;;;;;2.70;0.75;;;;;;;-4.45;100.00;98856.48;1709457;82;21590;-66
2021/12/21 00:29:30;;;;;;;1.70;0.62;;;;;;;-4.49;100.00;98855.73;1720635;82;21130;-66
2021/12/21 00:31:57;;;;;;;3.65;0.90;;;;;;;-4.56;100.00;98865.01;1735226;82;21551;-66
2021/12/21 00:34:25;;;;;;;2.05;0.60;;;;;;;-4.66;100.00;98866.70;1740682;81;21055;-66
2021/12/21 00:36:52;;;;;;;1.85;0.90;;;;;;;-4.75;100.00;98873.70;1745701;82;21063;-66
2021/12/21 00:39:18;;;;;;;1.92;0.75;;;;;;;-4.83;100.00;98878.65;1745740;82;21074;-67
2021/12/21 00:41:45;;;;;;;2.27;0.70;;;;;;;-4.92;100.00;98876.34;1737235;82;21051;-66
2021/12/21 00:44:11;;;;;;;2.87;1.07;;;;;;;-5.05;100.00;98877.88;1723991;82;21070;-66
2021/12/21 00:46:39;;;;;;;2.62;0.80;;;;;;;-5.10;100.00;98879.48;1717449;82;21023;-67
2021/12/21 00:49:16;;;;;;;1.50;0.50;;;;;;;-5.15;100.00;98876.58;1735840;82;21035;-66
2021/12/21 00:51:45;;;;;;;3.25;0.80;;;;;;;-5.19;100.00;98868.68;1722932;81;21664;-66
2021/12/21 00:54:11;;;;;;;2.47;0.70;;;;;;;-5.26;100.00;98881.07;1723243;82;21106;-66
2021/12/21 00:56:38;;;;;;;1.67;0.55;;;;;;;-5.28;100.00;98885.77;1723458;82;21086;-66
2021/12/21 00:59:05;;;;;;;1.95;0.70;;;;;;;-5.30;100.00;98885.11;1725543;82;21074;-66
2021/12/21 01:01:35;;;;;;;2.05;0.80;;;;;;;-5.31;100.00;98878.98;1720182;82;21062;-66
2021/12/21 01:04:07;;;;;;;2.22;0.75;;;;;;;-5.32;100.00;98884.00;1740400;82;20979;-66
2021/12/21 01:11:39;;;;;;;1.95;0.88;;;;;;;-5.40;100.00;98879.31;1738142;82;20991;-66
2021/12/21 01:14:14;;;;;;;1.98;0.90;;;;;;;-5.42;100.00;98885.33;1737053;82;21020;-66
2021/12/21 01:16:41;;;;;;;1.95;0.93;;;;;;;-5.42;100.00;98896.73;1736032;82;21506;-66
2021/12/21 01:19:14;;;;;;;1.55;0.68;;;;;;;-5.40;100.00;98897.88;1732252;82;21090;-66
2021/12/21 01:21:58;;;;;;;1.57;0.57;;;;;;;-5.42;100.00;98902.58;1735267;82;21122;-66
2021/12/21 01:29:33;;;;;;;4.20;0.82;;;;;;;-5.42;100.00;98903.90;1735286;81;21003;-66
2021/12/21 01:37:35;;;;;;;2.08;0.80;;;;;;;-5.56;100.00;98910.37;1753135;81;21035;-66
2021/12/21 01:40:12;;;;;;;1.35;0.60;;;;;;;-5.57;100.00;98922.02;1748651;82;21063;-66
2021/12/21 01:50:37;;;;;;;1.98;0.85;;;;;;;-5.63;100.00;98928.55;1743626;82;21039;-66
2021/12/21 01:53:03;;;;;;;1.30;0.50;;;;;;;-5.67;100.00;98925.45;1748765;82;21039;-66
2021/12/21 01:55:30;;;;;;;2.37;0.50;;;;;;;-5.71;100.00;98927.37;1747122;82;21117;-66
2021/12/21 01:57:58;;;;;;;4.15;0.70;;;;;;;-5.71;100.00;98932.67;1743477;82;21074;-66
2021/12/21 02:00:25;;;;;;;1.35;0.50;;;;;;;-5.71;100.00;98941.95;1734865;82;21062;-66
2021/12/21 02:02:51;;;;;;;1.92;0.53;;;;;;;-5.72;100.00;98949.08;1744448;82;21490;-66
2021/12/21 02:05:17;;;;;;;1.47;0.62;;;;;;;-5.72;100.00;98947.75;1748112;82;21050;-66
2021/12/21 02:07:44;;;;;;;2.00;0.70;;;;;;;-5.74;100.00;98951.08;1741213;81;21490;-66
2021/12/21 02:10:10;;;;;;;2.45;0.60;;;;;;;-5.73;100.00;98957.20;1750614;82;21058;-66
2021/12/21 02:12:36;;;;;;;1.72;0.50;;;;;;;-5.76;100.00;98963.70;1752842;82;21015;-66
2021/12/21 02:15:04;;;;;;;1.40;0.70;;;;;;;-5.75;100.00;98971.98;1737680;82;21074;-66
2021/12/21 02:18:00;;;;;;;1.52;0.60;;;;;;;-5.71;100.00;98967.96;1737525;82;21086;-66
2021/12/21 02:23:00;;;;;;;2.33;1.00;;;;;;;-5.76;100.00;98972.16;1730234;82;21023;-66
2021/12/21 02:30:49;;;;;;;2.42;0.82;;;;;;;-5.77;100.00;98983.27;1740782;82;21051;-66
2021/12/21 02:33:15;;;;;;;2.30;0.75;;;;;;;-5.81;100.00;98985.17;1738929;82;21011;-66
2021/12/21 02:35:41;;;;;;;1.77;0.70;;;;;;;-5.84;100.00;98985.52;1728534;82;21047;-66
2021/12/21 02:38:08;;;;;;;;;;;;;;;-5.86;100.00;98979.13;1738779;82;21117;-66
2021/12/21 02:40:35;;;;;;;2.42;1.00;;;;;;;-5.84;100.00;98991.64;1745070;82;20374;-66
2021/12/21 02:43:02;;;;;;;1.80;0.90;;;;;;;-5.87;100.00;98989.90;1753350;82;21058;-66
2021/12/21 02:45:28;;;;;;;1.40;0.60;;;;;;;-5.87;100.00;98981.45;1752455;82;21039;-66
2021/12/21 02:47:54;;;;;;;2.27;0.72;;;;;;;-5.84;100.00;98986.34;1737776;82;21589;-66
2021/12/21 02:50:21;;;;;;;2.05;0.75;;;;;;;-5.85;100.00;98988.70;1742477;82;21018;-66
2021/12/21 02:52:48;;;;;;;2.50;0.80;;;;;;;-5.86;100.00;98989.72;1723488;82;21082;-66
2021/12/21 02:55:14;;;;;;;4.37;0.78;;;;;;;-5.87;100.00;98991.22;1723774;82;21149;-66
2021/12/21 02:57:41;;;;;;;2.25;0.90;;;;;;;-5.86;100.00;98998.17;1726549;82;21043;-66
2021/12/21 03:00:10;;;;;;;2.55;0.95;;;;;;;-5.84;100.00;98997.44;1727316;82;21027;-66
2021/12/21 03:02:37;;;;;;;1.90;0.90;;;;;;;-5.83;100.00;98999.92;1727431;82;21006;-66
2021/12/21 03:05:04;;;;;;;2.15;0.70;;;;;;;-5.80;100.00;99001.38;1732069;82;21054;-66
2021/12/21 03:10:08;;;;;;;1.80;0.93;;;;;;;-5.79;100.00;99005.17;1751710;82;21007;-66
2021/12/21 03:13:53;;;;;;;1.67;0.72;;;;;;;-5.81;100.00;99004.52;1745750;82;21019;-66
2021/12/21 03:14:59;;;;;;;3.22;1.20;;;;;;;-5.76;100.00;99014.58;1735626;82;21494;-66
2021/12/21 03:17:26;;;;;;;3.85;1.20;;;;;;;-5.72;100.00;99017.19;1735943;82;21035;-66
2021/12/21 03:19:52;;;;;;;2.37;0.80;;;;;;;-5.74;100.00;99016.03;1737041;82;21023;-66
2021/12/21 03:22:19;;;;;;;3.12;1.02;;;;;;;-5.74;100.00;99017.89;1750345;82;21067;-66
2021/12/21 03:24:45;;;;;;;2.75;0.93;;;;;;;-5.75;100.00;99022.86;1739520;82;21023;-66
2021/12/21 03:27:11;;;;;;;4.58;0.82;;;;;;;-5.75;100.00;99026.34;1744886;82;21607;-65
2021/12/21 03:29:38;;;;;;;2.92;1.02;;;;;;;-5.76;100.00;99028.66;1746025;81;21050;-65
2021/12/21 03:32:07;;;;;;;3.37;1.02;;;;;;;-5.77;100.00;99036.28;1741582;82;21046;-65
2021/12/21 03:34:34;;;;;;;2.90;0.98;;;;;;;-5.78;100.00;99033.34;1727508;81;21075;-66
2021/12/21 03:37:01;;;;;;;3.20;1.02;;;;;;;-5.80;100.00;99028.70;1717642;82;21580;-66
2021/12/21 03:39:28;;;;;;;2.83;1.15;;;;;;;-5.81;100.00;99035.01;1739816;81;21082;-66
2021/12/21 03:41:57;;;;;;;4.15;1.20;;;;;;;-5.80;100.00;99033.18;1728418;82;21075;-67
2021/12/21 03:44:24;;;;;;;4.12;1.37;;;;;;;-5.81;100.00;99030.23;1712019;82;21537;-66
2021/12/21 03:46:53;;;;;;;3.30;1.15;;;;;;;-5.83;100.00;99025.60;1711839;82;21066;-66
2021/12/21 03:52:06;;;;;;;2.10;0.80;;;;;;;-5.85;100.00;99023.66;1713164;82;21095;-66
2021/12/21 03:54:32;;;;;;;2.33;0.90;;;;;;;-5.87;100.00;99023.03;1735669;82;21514;-66
2021/12/21 03:57:00;;;;;;;;;;;;;;;-5.84;100.00;99026.10;1720569;82;21114;-66
2021/12/21 03:59:27;;;;;;;2.08;0.70;;;;;;;-5.81;100.00;99020.42;1723263;82;20115;-65
2021/12/21 04:01:53;;;;;;;2.17;1.02;;;;;;;-5.86;100.00;99022.03;1736550;82;21534;-66
2021/12/21 04:04:22;;;;;;;2.42;0.90;;;;;;;-5.85;100.00;99028.45;1725290;82;21552;-66
2021/12/21 04:06:49;;;;;;;2.02;0.70;;;;;;;-5.86;100.00;99033.95;1716092;82;21075;-66
2021/12/21 04:09:16;;;;;;;2.12;0.90;;;;;;;-5.88;100.00;99028.03;1734190;82;21498;-66
2021/12/21 04:11:42;;;;;;;1.70;0.78;;;;;;;-5.88;100.00;99024.06;1736755;82;21043;-66
2021/12/21 04:14:10;;;;;;;1.98;0.70;;;;;;;-5.86;100.00;99020.70;1736758;82;21000;-66
2021/12/21 04:16:37;;;;;;;3.02;0.90;;;;;;;-5.84;100.00;99022.62;1713664;82;21040;-65
2021/12/21 04:19:04;;;;;;;1.55;0.80;;;;;;;-5.84;100.00;99019.97;1733628;82;21470;-66
2021/12/21 04:21:31;;;;;;;3.08;0.95;;;;;;;-5.81;100.00;99028.91;1722360;82;21095;-66
2021/12/21 04:23:57;;;;;;;2.87;1.05;;;;;;;-5.78;100.00;99037.31;1722269;82;21040;-66
2021/12/21 04:26:23;;;;;;;2.25;0.80;;;;;;;-5.77;100.00;99039.44;1729001;82;21020;-66
2021/12/21 04:28:50;;;;;;;2.60;0.60;;;;;;;-5.80;100.00;99039.31;1711881;82;21118;-66
2021/12/21 04:31:16;;;;;;;2.02;0.80;;;;;;;-5.84;100.00;99042.00;1725541;82;21039;-66
2021/12/21 04:33:43;;;;;;;3.12;0.98;;;;;;;-5.86;100.00;99043.23;1725605;82;21075;-66
2021/12/21 04:36:11;;;;;;;2.17;0.70;;;;;;;-5.90;100.00;99041.45;1722169;82;21111;-66
2021/12/21 04:38:41;;;;;;;1.22;0.60;;;;;;;-5.89;100.00;99044.94;1731359;82;20956;-66
2021/12/21 04:41:14;;;;;;;3.50;0.72;;;;;;;-5.88;100.00;99057.19;1725726;82;21558;-66
2021/12/21 04:43:37;;;;;;;3.27;0.80;;;;;;;-5.89;100.00;99055.03;1738652;82;20961;-66
2021/12/21 04:46:04;;;;;;;2.15;0.50;;;;;;;-5.90;100.00;99049.41;1739202;82;21608;-66
2021/12/21 04:48:31;;;;;;;1.42;0.60;;;;;;;-5.93;100.00;99055.58;1734773;82;21043;-66
2021/12/21 04:50:58;;;;;;;1.77;0.50;;;;;;;-5.96;100.00;99066.05;1736285;81;21075;-66
2021/12/21 04:53:24;;;;;;;1.20;0.53;;;;;;;-5.97;100.00;99075.00;1729136;81;21067;-66
2021/12/21 04:55:52;;;;;;;1.82;0.60;;;;;;;-5.98;100.00;99068.05;1738124;82;21059;-66
2021/12/21 04:58:18;;;;;;;1.25;0.65;;;;;;;-6.02;100.00;99075.23;1716784;82;21000;-66
2021/12/21 05:00:46;;;;;;;1.40;0.70;;;;;;;-6.05;100.00;99077.23;1733148;82;21590;-66
2021/12/21 05:03:13;;;;;;;1.45;0.60;;;;;;;-6.04;100.00;99079.37;1715442;82;20949;-66
2021/12/21 05:05:41;;;;;;;2.33;0.62;;;;;;;-6.06;100.00;99079.55;1721373;82;20999;-66
2021/12/21 05:08:10;;;;;;;1.75;0.60;;;;;;;-6.05;100.00;99089.66;1730324;82;21023;-66
2021/12/21 05:10:48;;;;;;;2.40;1.00;;;;;;;-6.05;100.00;99093.63;1733374;82;21461;-66
2021/12/21 05:13:16;;;;;;;2.45;1.00;;;;;;;-6.05;100.00;99093.13;1722265;82;21015;-66
2021/12/21 05:15:43;;;;;;;2.65;1.10;;;;;;;-6.01;100.00;99094.09;1724013;82;21027;-66
2021/12/21 05:18:11;;;;;;;1.42;0.78;;;;;;;-6.05;100.00;99101.58;1735361;82;20944;-66
2021/12/21 05:20:38;;;;;;;2.47;1.00;;;;;;;-6.09;100.00;99107.73;1735945;82;21111;-65
2021/12/21 05:23:05;;;;;;;1.37;0.60;;;;;;;-6.09;100.00;99107.73;1731323;82;21011;-66
2021/12/21 05:25:32;;;;;;;5.85;0.80;;;;;;;-6.10;100.00;99105.28;1725391;82;21598;-67
2021/12/21 05:27:59;;;;;;;;;;;;;;;-6.16;100.00;99104.16;1723800;82;21042;-66
2021/12/21 05:30:26;;;;;;;2.65;1.00;;;;;;;-6.18;100.00;99115.95;1721491;82;20151;-66
2021/12/21 05:32:54;;;;;;;3.92;1.50;;;;;;;-6.25;100.00;99117.67;1715023;82;20991;-66
2021/12/21 05:35:20;;;;;;;4.47;1.92;;;;;;;-6.26;100.00;99110.23;1715795;82;21137;-66
2021/12/21 05:37:48;;;;;;;3.45;1.60;;;;;;;-6.24;100.00;99119.33;1717113;82;21502;-66
2021/12/21 05:40:16;;;;;;;4.20;1.22;;;;;;;-6.31;100.00;99117.91;1723412;82;21043;-66
2021/12/21 05:42:45;;;;;;;3.22;1.10;;;;;;;-6.40;100.00;99122.94;1732029;82;21467;-65
2021/12/21 05:45:15;;;;;;;2.77;1.25;;;;;;;-6.46;100.00;99124.16;1727837;82;21039;-66
2021/12/21 05:47:43;;;;;;;4.67;1.47;;;;;;;-6.53;100.00;99123.22;1729365;82;20955;-66
2021/12/21 05:50:15;;;;;;;3.60;1.40;;;;;;;-6.61;100.00;99131.55;1742566;82;21062;-66
2021/12/21 05:52:42;;;;;;;5.95;1.50;;;;;;;-6.67;100.00;99138.88;1737250;82;20999;-65
2021/12/21 05:55:10;;;;;;;3.67;1.65;;;;;;;-6.70;100.00;99145.03;1737963;82;21079;-66
2021/12/21 05:57:36;;;;;;;4.28;1.57;;;;;;;-6.74;100.00;99146.38;1741579;80;21058;-65
2021/12/21 06:00:13;;;;;;;4.35;1.72;;;;;;;-6.78;100.00;99149.05;1728666;82;21596;-65
2021/12/21 06:02:40;;;;;;;3.60;1.70;;;;;;;-6.82;100.00;99146.42;1724114;82;21019;-67
2021/12/21 06:05:07;;;;;;;3.20;1.27;;;;;;;-6.87;100.00;99157.52;1728737;82;21035;-66
2021/12/21 06:07:35;;;;;;;2.50;1.00;;;;;;;-6.89;100.00;99155.56;1728386;82;21554;-66
2021/12/21 06:10:12;;;;;;;;;;;;;;;-6.91;100.00;99162.86;1733061;82;21003;-66
2021/12/21 06:12:59;;;;;;;4.15;1.00;;;;;;;-6.92;100.00;99162.53;1722160;82;20522;-65
2021/12/21 06:15:19;;;;;;;2.98;1.20;;;;;;;-6.98;100.00;99180.93;1726464;82;21522;-65
2021/12/21 06:25:57;;;;;;;4.40;1.60;;;;;;;-7.02;100.00;99181.78;1732169;82;21558;-65
2021/12/21 06:28:22;;;;;;;4.95;1.07;;;;;;;-7.03;100.00;99190.70;1693998;82;21027;-66
2021/12/21 06:30:50;;;;;;;3.87;1.57;;;;;;;-7.01;100.00;99195.83;1731250;82;21051;-65
2021/12/21 06:33:17;;;;;;;2.90;1.30;;;;;;;-7.00;100.00;99193.00;1741175;82;20991;-65
2021/12/21 06:35:44;;;;;;;7.15;1.25;;;;;;;-6.99;100.00;99192.01;1728097;82;21070;-64
2021/12/21 06:38:10;;;;;;;2.45;1.12;;;;;;;-6.97;100.00;99207.69;1728212;82;21006;-66
2021/12/21 06:40:39;;;;;;;4.33;1.50;;;;;;;-7.05;100.00;99190.86;1723057;82;21039;-65
2021/12/21 06:43:10;;;;;;;2.50;1.10;;;;;;;-7.07;100.00;99211.88;1739648;82;20979;-66
2021/12/21 06:51:14;;;;;;;3.10;1.45;;;;;;;-7.11;100.00;99224.63;1779607;80;21079;-65
2021/12/21 06:53:37;;;;;;;3.55;1.42;;;;;;;-7.17;100.00;99231.11;1783788;80;21038;-66
2021/12/21 06:56:05;;;;;;;2.60;1.30;;;;;;;-7.19;100.00;99237.08;1784133;80;21611;-65
2021/12/21 06:58:31;;;;;;;3.52;1.55;;;;;;;-7.26;100.00;99234.27;1784318;80;21047;-65
2021/12/21 07:00:59;;;;;;;;;;;;;;;-7.31;100.00;99237.11;1704866;84;21689;-65
2021/12/21 07:03:26;;;;;;;9.68;2.65;;;;;;;-7.35;100.00;99247.69;1696911;84;20115;-66
2021/12/21 07:05:52;;;;;;;;;;;;;;;-7.40;100.00;99248.72;1696491;84;21095;-66
2021/12/21 07:08:23;;;;;;;6.08;2.47;;;;;;;-7.51;100.00;99259.64;1693427;85;20182;-66
2021/12/21 07:11:09;;;;;;;4.45;2.00;;;;;;;-7.68;100.00;99258.82;1714162;84;21086;-65
2021/12/21 07:18:51;;;;;;;4.65;2.02;;;;;;;-7.99;100.00;99278.50;1737410;82;20940;-65
2021/12/21 07:21:17;;;;;;;4.70;1.92;;;;;;;-8.10;100.00;99278.82;1753422;82;21035;-65
2021/12/21 07:23:43;;;;;;;5.28;1.90;;;;;;;-8.24;100.00;99278.98;1753545;82;21002;-65
2021/12/21 07:26:10;;;;;;;3.72;1.40;;;;;;;-8.31;100.00;99284.61;1753262;82;21039;-66
2021/12/21 07:28:36;;;;;;;4.05;1.32;;;;;;;-8.34;100.00;99280.16;1753648;82;21486;-66
2021/12/21 07:31:03;;;;;;;1.77;0.70;;;;;;;-8.39;100.00;99298.28;1753203;82;21067;-65
2021/12/21 07:33:29;;;;;;;3.58;1.10;;;;;;;-8.50;100.00;99304.69;1752791;82;21649;-65
2021/12/21 07:35:55;;;;;;;3.25;1.00;;;;;;;-8.68;100.00;99314.04;1747567;81;21069;-65
2021/12/21 07:38:25;;;;;;;2.50;0.70;;;;;;;-8.85;100.00;99308.37;1740327;82;21023;-66
2021/12/21 07:40:50;;;;;;;2.22;0.78;;;;;;;-8.95;100.00;99309.48;1738957;82;21090;-66
2021/12/21 07:43:16;;;;;;;3.35;0.90;;;;;;;-9.00;100.00;99308.66;1739395;82;21510;-66
2021/12/21 07:45:43;;;;;;;2.87;0.72;;;;;;;-9.03;100.00;99308.16;1739267;82;21067;-65
2021/12/21 07:48:11;;;;;;;2.35;0.70;;;;;;;-9.04;100.00;99309.95;1739557;82;21046;-66
2021/12/21 07:51:21;;;;;;;1.87;0.72;;;;;;;-9.04;100.00;99318.36;1788786;79;22925;-65
2021/12/21 07:53:48;;;;;;;;;;;;;;;-9.17;100.00;99324.04;1755892;82;21477;-65
2021/12/21 07:56:16;;;;;;;2.83;1.32;;;;;;;-9.19;100.00;99330.80;1752992;82;20086;-65
2021/12/21 07:58:43;;;;;;;3.87;1.30;;;;;;;-9.24;100.00;99334.88;1757286;80;21463;-65
2021/12/21 08:01:09;;;;;;;4.03;1.05;;;;;;;-9.27;100.00;99337.83;1764754;80;21029;-66
2021/12/21 08:03:36;;;;;;;3.33;1.07;;;;;;;-9.26;100.00;99336.86;1738522;82;21044;-66
2021/12/21 08:06:06;;;;;;;1.87;0.75;;;;;;;-9.24;100.00;99342.78;1730100;82;21075;-65
2021/12/21 08:08:35;;;;;;;2.95;1.00;;;;;;;-9.31;100.00;99332.04;1723177;83;21050;-65
2021/12/21 08:13:37;;;;;;;4.72;1.22;;;;;;;-9.38;100.00;99331.00;1741932;82;21019;-65
2021/12/21 08:16:05;;;;;;;2.87;1.00;;;;;;;-9.43;100.00;99339.05;1739579;82;21122;-66
2021/12/21 08:18:32;;;;;;;2.75;0.88;;;;;;;-9.43;100.00;99349.11;1751966;82;21007;-65
2021/12/21 08:20:58;;;;;;;2.60;1.20;;;;;;;-9.41;100.00;99343.67;1742226;82;21043;-65
2021/12/21 08:23:26;;;;;;;4.30;1.52;;;;;;;-9.40;100.00;99349.28;1739365;82;20998;-66
2021/12/21 08:25:54;;;;;;;5.28;1.60;;;;;;;-9.38;100.00;99347.30;1751876;81;21510;-65
2021/12/21 08:28:21;;;;;;;4.20;1.62;;;;;;;-9.36;100.00;99333.02;1732141;82;21598;-65
2021/12/21 08:30:47;;;;;;;4.65;1.47;;;;;;;-9.35;100.00;99357.57;1745103;82;21015;-66
2021/12/21 08:33:13;;;;;;;4.22;1.20;;;;;;;-9.34;100.00;99349.97;1753501;82;21505;-67
2021/12/21 08:35:39;;;;;;;6.87;1.82;;;;;;;-9.34;100.00;99344.70;1746301;82;21054;-66
2021/12/21 08:38:09;;;;;;;6.33;1.65;;;;;;;-9.33;100.00;99343.73;1738543;82;21510;-66
2021/12/21 08:40:39;;;;;;;4.37;1.27;;;;;;;-9.37;100.00;99355.56;1729513;82;21083;-66
2021/12/21 08:43:11;;;;;;;3.25;1.30;;;;;;;-9.38;100.00;99346.82;1752991;82;21019;-66
2021/12/21 08:45:40;;;;;;;5.00;1.40;;;;;;;-9.39;100.00;99349.14;1740754;82;21051;-66
2021/12/21 08:48:06;;;;;;;3.40;1.10;;;;;;;-9.45;100.00;99342.31;1723295;83;21050;-65
2021/12/21 08:50:34;;;;;;;2.15;0.70;;;;;;;-9.45;100.00;99360.77;1723661;83;21091;-66
2021/12/21 08:53:00;;;;;;;7.17;2.08;;;;;;;-9.47;100.00;99367.53;1723823;83;21031;-66
2021/12/21 08:55:27;;;;;;;5.67;1.37;;;;;;;-9.48;100.00;99362.39;1724004;83;21114;-66
2021/12/21 08:57:54;;;;;;;3.75;1.50;;;;;;;-9.52;100.00;99369.78;1737410;82;21047;-66
2021/12/21 09:00:21;;;;;;;3.52;1.10;;;;;;;-9.60;100.00;99374.49;1753769;82;21568;-67
2021/12/21 09:02:47;;;;;;;;;;;;;;;-9.65;100.00;99389.95;1756042;82;20983;-67
2021/12/21 09:05:18;;;;;;;4.47;1.02;;;;;;;-9.73;100.00;99391.67;1747931;82;20431;-66
2021/12/21 09:07:47;;;;;;;2.45;1.00;;;;;;;-9.87;100.00;99377.23;1723436;83;21042;-66
2021/12/21 09:10:15;;;;;;;2.83;1.00;;;;;;;-9.82;100.00;99383.37;1727014;80;21099;-65
2021/12/21 09:12:42;;;;;;;3.27;1.20;;;;;;;-9.59;100.00;99391.97;1740228;82;20995;-66
2021/12/21 09:15:09;;;;;;;1.87;0.85;;;;;;;-9.24;100.00;99392.39;1729679;82;21519;-66
2021/12/21 09:17:35;;;;;;;3.75;1.05;;;;;;;-8.97;100.00;99400.66;1727730;82;20967;-66
2021/12/21 09:20:04;;;;;;;3.47;1.20;;;;;;;-8.88;100.00;99397.06;1711097;84;21026;-66
2021/12/21 09:22:32;;;;;;;2.80;1.12;;;;;;;-8.75;100.00;99405.89;1753332;81;21007;-66
2021/12/21 09:24:59;;;;;;;2.67;1.05;;;;;;;-8.65;100.00;99393.41;1740478;82;21031;-66
2021/12/21 09:27:26;;;;;;;;;;;;;;;-8.61;100.00;99396.86;1721154;82;21029;-66
2021/12/21 09:29:52;;;;;;;6.27;1.30;;;;;;;-8.54;100.00;99389.66;1728085;82;20447;-65
2021/12/21 09:32:19;;;;;;;4.10;1.22;;;;;;;-8.63;100.00;99401.48;1721806;83;21730;-65
2021/12/21 09:34:46;;;;;;;4.50;1.42;;;;;;;-8.76;100.00;99405.06;1724229;82;21043;-63
2021/12/21 09:37:19;;;;;;;3.80;1.42;;;;;;;-8.81;100.00;99400.73;1723413;82;21507;-64
2021/12/21 09:39:48;;;;;;;3.00;1.25;;;;;;;-8.81;100.00;99398.09;1740093;82;22370;-64
2021/12/21 09:42:18;;;;;;;2.75;1.02;;;;;;;-8.85;100.00;99394.11;1745712;82;21580;-64
2021/12/21 09:44:44;;;;;;;4.40;1.65;;;;;;;-8.93;100.00;99400.68;1723489;83;21003;-66
2021/12/21 09:47:11;;;;;;;6.70;1.50;;;;;;;-9.01;100.00;99405.90;1723973;82;21585;-64
2021/12/21 09:49:38;;;;;;;;;;;;;;;-9.07;100.00;99394.66;1725101;83;21058;-65
2021/12/21 09:52:06;;;;;;;;;;;;;;;-9.10;100.00;99409.45;1698740;82;20134;-65
2021/12/21 09:54:34;;;;;;;3.08;1.17;;;;;;;-9.12;100.00;99399.56;1695071;85;20146;-64
2021/12/21 09:57:00;;;;;;;5.58;1.20;;;;;;;-9.22;100.00;99402.80;1722977;82;21024;-65
2021/12/21 09:59:27;;;;;;;3.83;1.30;;;;;;;-9.29;100.00;99410.98;1739558;82;20971;-65
2021/12/21 10:01:56;;;;;;;;;;;;;;;-9.26;100.00;99421.21;1741729;82;21031;-64
2021/12/21 10:04:22;;;;;;;3.80;1.45;;;;;;;-9.31;100.00;99416.88;1738694;81;20107;-64
2021/12/21 10:06:52;;;;;;;4.50;1.62;;;;;;;-9.49;100.00;99416.91;1715392;82;21040;-65
2021/12/21 10:09:20;;;;;;;3.67;1.47;;;;;;;-9.52;100.00;99414.58;1663907;86;21039;-63
2021/12/21 10:11:48;;;;;;;6.80;1.65;;;;;;;-9.38;100.00;99421.11;1736535;82;21036;-66
2021/12/21 10:14:16;;;;;;;3.50;1.40;;;;;;;-9.24;100.00;99411.33;1720355;82;21537;-65
2021/12/21 10:16:47;;;;;;;4.53;1.85;;;;;;;-9.09;100.00;99421.66;1706661;82;21763;-65
2021/12/21 10:19:22;;;;;;;4.00;1.80;;;;;;;-8.98;100.00;99413.50;1716440;82;21518;-66
2021/12/21 10:21:48;;;;;;;5.30;2.10;;;;;;;-8.92;100.00;99408.91;1732414;82;21055;-66
2021/12/21 10:24:27;;;;;;;4.08;1.62;;;;;;;-8.98;100.00;99417.45;1739691;82;21027;-64
2021/12/21 10:27:07;;;;;;;3.50;1.50;;;;;;;-9.07;100.00;99419.20;1738602;81;21048;-66
2021/12/21 10:29:52;;;;;;;2.72;1.42;;;;;;;-9.17;100.00;99427.70;1736035;82;21596;-65
2021/12/21 10:32:28;;;;;;;3.70;1.62;;;;;;;-9.32;100.00;99429.26;1738964;82;21103;-66
2021/12/21 10:35:04;;;;;;;3.27;1.47;;;;;;;-9.48;100.00;99428.28;1737381;82;21015;-63
2021/12/21 10:37:33;;;;;;;3.80;1.47;;;;;;;-9.55;100.00;99437.77;1648351;87;21070;-64
2021/12/21 10:40:23;;;;;;;4.42;1.60;;;;;;;-9.53;100.00;99445.89;1710214;82;21039;-64
2021/12/21 10:43:01;;;;;;;4.08;1.75;;;;;;;-9.44;100.00;99443.64;1724581;82;21022;-65
2021/12/21 10:45:32;;;;;;;4.60;1.67;;;;;;;-9.30;100.00;99441.78;1725798;82;21391;-65
2021/12/21 10:47:58;;;;;;;3.87;1.40;;;;;;;-9.25;100.00;99443.97;1713538;82;21035;-65
2021/12/21 10:50:25;;;;;;;;;;;;;;;-9.12;100.00;99445.70;1735239;81;21063;-66
2021/12/21 10:52:53;;;;;;;3.67;1.60;;;;;;;-8.94;100.00;99437.27;1746719;82;20416;-65
2021/12/21 10:55:27;;;;;;;3.58;1.37;;;;;;;-8.85;100.00;99438.95;1732429;82;21091;-66
2021/12/21 10:58:15;;;;;;;4.20;1.60;;;;;;;-8.65;100.00;99435.14;1723253;83;21092;-64
2021/12/21 11:00:52;;;;;;;2.70;1.20;;;;;;;-8.40;100.00;99432.12;1725141;82;21084;-64
2021/12/21 11:03:33;;;;;;;4.58;1.75;;;;;;;-8.21;100.00;99432.30;1723521;83;21072;-63
2021/12/21 11:06:15;;;;;;;3.27;1.30;;;;;;;-7.95;100.00;99429.58;1742557;82;21061;-64
2021/12/21 11:08:44;;;;;;;3.05;1.00;;;;;;;-7.72;100.00;99418.22;1735614;82;20988;-65
2021/12/21 11:11:42;;;;;;;3.25;1.30;;;;;;;-7.72;100.00;99430.64;1752091;82;21047;-65
2021/12/21 11:14:17;;;;;;;3.17;1.27;;;;;;;-7.75;100.00;99456.04;1739265;82;21008;-66
2021/12/21 11:16:52;;;;;;;4.45;1.35;;;;;;;-7.94;100.00;99441.32;1712672;84;21031;-65
2021/12/21 11:19:20;;;;;;;3.08;0.93;;;;;;;-8.27;100.00;99431.63;1753320;81;20996;-65
2021/12/21 11:21:47;;;;;;;4.35;1.40;;;;;;;-8.46;100.00;99444.61;1740257;81;21854;-65
2021/12/21 11:24:15;;;;;;;;;;;;;;;-8.55;100.00;99446.05;1743725;82;21064;-66
2021/12/21 11:26:43;;;;;;;3.02;0.78;;;;;;;-8.50;100.00;99453.83;1740846;82;20111;-65
2021/12/21 11:29:16;;;;;;;2.55;1.00;;;;;;;-8.59;100.00;99452.14;1743107;82;20956;-66
2021/12/21 11:31:47;;;;;;;4.25;1.10;;;;;;;-8.67;100.00;99458.69;1753157;82;21094;-65
2021/12/21 11:34:17;;;;;;;2.60;1.10;;;;;;;-8.74;100.00;99470.84;1723593;82;21564;-65
2021/12/21 11:39:34;;;;;;;4.25;1.47;;;;;;;-8.96;100.00;99477.45;1723445;83;21019;-66
2021/12/21 11:42:02;;;;;;;3.50;1.30;;;;;;;-8.96;100.00;99484.56;1726160;82;21134;-65
2021/12/21 11:44:50;;;;;;;5.08;1.62;;;;;;;-8.95;100.00;99469.89;1723165;83;21027;-66
2021/12/21 11:47:20;;;;;;;4.83;1.65;;;;;;;-8.93;100.00;99474.54;1723106;83;21592;-65
2021/12/21 11:49:58;;;;;;;3.08;1.17;;;;;;;-8.95;100.00;99478.28;1722942;83;21035;-66
2021/12/21 11:52:25;;;;;;;5.85;1.30;;;;;;;-8.92;100.00;99484.56;1723132;83;21070;-65
2021/12/21 11:54:58;;;;;;;3.87;1.10;;;;;;;-8.97;100.00;99485.54;1723501;83;20999;-65
2021/12/21 11:57:41;;;;;;;3.40;1.30;;;;;;;-9.05;100.00;99483.66;1724605;82;21479;-66
2021/12/21 12:00:15;;;;;;;2.72;1.45;;;;;;;-9.11;100.00;99475.89;1752680;80;21461;-65
2021/12/21 12:02:42;;;;;;;2.70;1.10;;;;;;;-9.14;100.00;99488.55;1743664;80;20979;-65
2021/12/21 12:05:25;;;;;;;2.47;1.02;;;;;;;-9.23;100.00;99482.37;1749557;81;21007;-66
2021/12/21 12:08:05;;;;;;;4.40;1.30;;;;;;;-9.32;100.00;99492.52;1686590;84;21034;-65
2021/12/21 12:10:35;;;;;;;2.62;1.30;;;;;;;-9.39;100.00;99495.42;1730713;80;21114;-66
2021/12/21 12:13:15;;;;;;;4.55;1.57;;;;;;;-9.45;100.00;99507.87;1745639;82;21042;-66
2021/12/21 12:15:48;;;;;;;3.72;1.25;;;;;;;-9.49;100.00;99509.14;1729340;82;21573;-65
2021/12/21 12:18:23;;;;;;;4.17;1.60;;;;;;;-9.46;100.00;99523.84;1734224;82;20924;-67
2021/12/21 12:20:49;;;;;;;3.90;1.60;;;;;;;-9.46;100.00;99522.05;1751013;82;21054;-66
2021/12/21 12:23:19;;;;;;;4.40;1.42;;;;;;;-9.46;100.00;99526.48;1703024;84;21010;-67
2021/12/21 12:25:56;;;;;;;3.62;1.37;;;;;;;-9.41;100.00;99540.02;1723027;83;21125;-65
2021/12/21 12:28:27;;;;;;;4.97;2.02;;;;;;;-9.46;100.00;99536.54;1732861;82;21003;-66
2021/12/21 12:30:55;;;;;;;30.55;14.23;;;;;;;-9.53;100.00;99534.65;1714479;84;21163;-65
2021/12/21 12:33:21;;;;;;;7.83;3.47;;;;;;;-9.58;100.00;99537.72;1734828;82;21474;-66
2021/12/21 12:35:48;;;;;;;5.00;2.05;;;;;;;-9.78;100.00;99530.92;1752812;82;21199;-66
2021/12/21 12:38:20;;;;;;;5.85;3.05;;;;;;;-9.78;100.00;99530.92;1742525;82;21473;-66
2021/12/21 12:40:54;;;;;;;6.03;2.20;;;;;;;-9.81;100.00;99543.08;1744735;82;21031;-66
2021/12/21 12:43:27;;;;;;;6.20;2.40;;;;;;;-9.84;100.00;99535.44;1752415;82;20987;-65
2021/12/21 12:46:02;;;;;;;39.85;12.70;;;;;;;-9.88;100.00;99542.81;1728603;82;21074;-65